McMechen, West Virginia
Current Conditions -  °F | °C
As of 5:53 AM on Thursday 27 Nov 2014 (Local Time) from KHLG Reporting Station
Haze Haze  
Wind Chill: 25°   Ceiling: 4000
Heat Index: 31°   Visibility: 4mi
Dew Point: 30°   Wind: 6mph
Humidity: 96%   Direction: 290°WNW
Pressure: 30.01"   Gusts: NA
Location:  39.99°N, 80.73°W
Report Text: KHLG 271053Z AUTO 29005KT 4SM BR FEW005 OVC040 M01/M01 A3001 RMK AO2 SLP178 T10061011
Loading
Personal Weather Stations






























Interactive Weather Map New forecast layout! Learn more

10-Day Weather Forecast

Advertisements
Track Severe Weather on mobile